createdAt,value
2023-03-22T00:00:39.727Z,11.97
2023-03-22T00:03:10.128Z,11.97
2023-03-22T00:05:40.367Z,11.96
2023-03-22T00:08:28.694Z,11.95
2023-03-22T00:10:57.174Z,11.94
2023-03-22T00:13:27.399Z,11.93
2023-03-22T00:15:56.216Z,11.92
2023-03-22T00:18:32.143Z,11.92
2023-03-22T00:21:00.950Z,11.91
2023-03-22T00:23:29.722Z,11.91
2023-03-22T00:25:58.193Z,11.90
2023-03-22T00:28:27.815Z,11.89
2023-03-22T00:31:02.884Z,11.89
2023-03-22T00:33:31.527Z,11.89
2023-03-22T00:36:01.547Z,11.88
2023-03-22T00:38:47.740Z,11.88
2023-03-22T00:41:17.983Z,11.87
2023-03-22T00:43:49.412Z,11.87
2023-03-22T00:46:20.158Z,11.87
2023-03-22T00:48:49.036Z,11.87
2023-03-22T00:51:18.965Z,11.87
2023-03-22T00:53:51.215Z,11.87
2023-03-22T00:56:19.975Z,11.87
2023-03-22T00:58:58.949Z,11.88
2023-03-22T01:01:32.581Z,11.89
2023-03-22T01:04:03.364Z,11.90
2023-03-22T01:06:33.909Z,11.91
2023-03-22T01:09:02.270Z,11.92
2023-03-22T01:11:34.330Z,11.93
2023-03-22T01:14:03.131Z,11.93
2023-03-22T01:16:31.459Z,11.92
2023-03-22T01:19:00.590Z,11.93
2023-03-22T01:21:29.273Z,11.94
2023-03-22T01:23:58.378Z,11.94
2023-03-22T01:26:26.950Z,11.94
2023-03-22T01:28:55.642Z,11.93
2023-03-22T01:31:24.205Z,11.94
2023-03-22T01:33:52.711Z,11.94
2023-03-22T01:36:23.298Z,11.93
2023-03-22T01:38:51.716Z,11.93
2023-03-22T01:41:21.429Z,11.93
2023-03-22T01:44:15.114Z,11.94
2023-03-22T01:46:45.096Z,11.92
2023-03-22T01:49:26.394Z,11.92
2023-03-22T01:51:56.414Z,11.89
2023-03-22T01:54:48.954Z,11.88
2023-03-22T01:57:38.639Z,11.87
2023-03-22T02:00:12.845Z,11.86
2023-03-22T02:03:02.836Z,11.85
2023-03-22T02:05:37.360Z,11.84
2023-03-22T02:08:09.511Z,11.84
2023-03-22T02:10:53.270Z,11.84
2023-03-22T02:13:39.453Z,11.84
2023-03-22T02:17:01.976Z,11.83
2023-03-22T02:20:11.082Z,11.82
2023-03-22T02:23:13.820Z,11.80
2023-03-22T02:26:21.618Z,11.79
2023-03-22T02:28:56.036Z,11.78
2023-03-22T02:31:51.352Z,11.79
2023-03-22T02:35:01.241Z,11.79
2023-03-22T02:37:39.305Z,11.80
2023-03-22T02:40:35.543Z,11.80
2023-03-22T02:43:11.184Z,11.80
2023-03-22T02:45:48.364Z,11.80
2023-03-22T02:48:20.834Z,11.79
2023-03-22T02:50:53.055Z,11.78
2023-03-22T02:53:30.088Z,11.76
2023-03-22T02:56:00.717Z,11.76
2023-03-22T02:58:47.017Z,11.75
2023-03-22T03:01:38.756Z,11.75
2023-03-22T03:04:11.360Z,11.75
2023-03-22T03:06:46.467Z,11.75
2023-03-22T03:09:18.308Z,11.74
2023-03-22T03:11:51.429Z,11.75
2023-03-22T03:14:28.744Z,11.74
2023-03-22T03:17:30.761Z,11.74
2023-03-22T03:20:22.389Z,11.74
2023-03-22T03:23:28.645Z,11.85
2023-03-22T03:26:13.304Z,11.87
2023-03-22T03:28:52.435Z,11.76
2023-03-22T03:31:35.126Z,11.74
2023-03-22T03:34:35.682Z,11.74
2023-03-22T03:37:08.881Z,11.74
2023-03-22T03:39:50.889Z,11.74
2023-03-22T03:42:19.967Z,11.74
2023-03-22T03:44:48.444Z,11.73
2023-03-22T03:47:17.134Z,11.68
2023-03-22T03:49:46.943Z,11.66
2023-03-22T03:52:15.326Z,11.72
2023-03-22T03:54:43.611Z,11.74
2023-03-22T03:57:22.526Z,11.74
2023-03-22T03:59:51.006Z,11.74
2023-03-22T04:02:29.598Z,11.74
2023-03-22T04:05:00.069Z,11.73
2023-03-22T04:07:29.290Z,11.73
2023-03-22T04:09:57.436Z,11.71
2023-03-22T04:12:29.174Z,11.71
2023-03-22T04:15:17.930Z,11.71
2023-03-22T04:17:49.617Z,11.70
2023-03-22T04:20:19.806Z,11.71
2023-03-22T04:22:49.415Z,11.70
2023-03-22T04:25:19.538Z,11.70
2023-03-22T04:27:56.114Z,11.70
2023-03-22T04:30:24.992Z,11.69
2023-03-22T04:33:07.386Z,11.72
2023-03-22T04:35:57.553Z,11.71
2023-03-22T04:38:32.014Z,11.71
2023-03-22T04:41:00.799Z,11.71
2023-03-22T04:43:51.190Z,11.71
2023-03-22T04:46:21.651Z,11.72
2023-03-22T04:49:06.593Z,11.74
2023-03-22T04:51:37.833Z,11.76
2023-03-22T04:54:35.697Z,11.77
2023-03-22T04:57:04.822Z,11.78
2023-03-22T04:59:38.809Z,11.75
2023-03-22T05:02:07.182Z,11.80
2023-03-22T05:04:41.527Z,11.82
2023-03-22T05:07:19.400Z,11.85
2023-03-22T05:09:55.558Z,11.87
2023-03-22T05:12:24.960Z,11.89
2023-03-22T05:15:14.543Z,11.92
2023-03-22T05:17:44.653Z,11.91
2023-03-22T05:20:13.958Z,11.84
2023-03-22T05:22:45.509Z,11.85
2023-03-22T05:25:13.986Z,11.88
2023-03-22T05:27:44.928Z,11.92
2023-03-22T05:30:32.966Z,12.09
2023-03-22T05:33:09.840Z,12.16
2023-03-22T05:35:43.283Z,12.20
2023-03-22T05:38:12.141Z,12.24
2023-03-22T05:40:44.871Z,12.19
2023-03-22T05:43:13.723Z,12.31
2023-03-22T05:45:49.756Z,12.36
2023-03-22T05:48:46.705Z,12.43
2023-03-22T05:51:19.491Z,12.48
2023-03-22T05:53:53.703Z,12.52
2023-03-22T05:56:30.684Z,12.57
2023-03-22T05:59:05.726Z,12.61
2023-03-22T06:01:35.256Z,12.65
2023-03-22T06:04:11.897Z,12.68
2023-03-22T06:07:01.161Z,12.74
2023-03-22T06:09:42.040Z,12.74
2023-03-22T06:12:22.804Z,12.80
2023-03-22T06:14:55.891Z,12.86
2023-03-22T06:17:42.701Z,12.93
2023-03-22T06:20:18.348Z,12.91
2023-03-22T06:22:55.511Z,13.03
2023-03-22T06:25:24.442Z,13.07
2023-03-22T06:27:54.339Z,12.99
2023-03-22T06:30:23.797Z,13.02
2023-03-22T06:33:06.351Z,13.10
2023-03-22T06:35:38.066Z,13.17
2023-03-22T06:38:06.890Z,13.23
2023-03-22T06:40:38.377Z,13.30
2023-03-22T06:43:07.842Z,13.38
2023-03-22T06:45:40.691Z,13.46
2023-03-22T06:48:09.882Z,13.53
2023-03-22T06:50:53.967Z,13.62
2023-03-22T06:53:34.845Z,13.70
2023-03-22T06:56:04.967Z,13.77
2023-03-22T06:58:39.001Z,13.84
2023-03-22T07:01:07.940Z,13.92
2023-03-22T07:03:38.702Z,14.00
2023-03-22T07:06:14.977Z,14.08
2023-03-22T07:08:45.796Z,14.15
2023-03-22T07:11:19.801Z,14.22
2023-03-22T07:13:53.914Z,14.29
2023-03-22T07:16:22.639Z,14.35
2023-03-22T07:19:03.066Z,14.49
2023-03-22T07:21:31.643Z,14.57
2023-03-22T07:30:24.870Z,14.83
2023-03-22T07:32:53.753Z,14.90
2023-03-22T07:35:22.158Z,14.93
2023-03-22T07:37:53.062Z,14.95
2023-03-22T07:40:26.561Z,14.85
2023-03-22T07:42:56.782Z,14.80
2023-03-22T07:45:37.131Z,14.77
2023-03-22T07:48:44.320Z,14.71
2023-03-22T07:51:42.739Z,14.66
2023-03-22T07:54:17.751Z,14.62
2023-03-22T07:56:51.243Z,14.59
2023-03-22T07:59:20.639Z,14.58
2023-03-22T08:01:51.823Z,14.57
2023-03-22T08:04:28.171Z,14.57
2023-03-22T08:07:03.500Z,14.57
2023-03-22T08:09:37.089Z,14.60
2023-03-22T08:12:07.535Z,14.62
2023-03-22T08:14:37.940Z,14.64
2023-03-22T08:17:10.207Z,14.67
2023-03-22T08:19:39.776Z,14.69
2023-03-22T08:22:08.841Z,14.71
2023-03-22T08:24:57.567Z,14.74
2023-03-22T08:27:32.293Z,14.75
2023-03-22T08:30:01.492Z,14.75
2023-03-22T08:32:31.106Z,14.76
2023-03-22T08:34:59.693Z,14.76
2023-03-22T08:37:28.468Z,14.76
2023-03-22T08:39:56.996Z,14.76
2023-03-22T08:42:43.345Z,14.77
2023-03-22T08:45:12.234Z,14.79
2023-03-22T08:47:49.661Z,14.86
2023-03-22T08:50:18.414Z,14.91
2023-03-22T08:52:51.908Z,14.88
2023-03-22T08:55:27.763Z,14.88
2023-03-22T08:58:16.583Z,14.79
2023-03-22T09:00:54.333Z,14.81
2023-03-22T09:03:46.251Z,14.78
2023-03-22T09:06:15.067Z,14.75
2023-03-22T09:08:52.444Z,14.73
2023-03-22T09:11:23.981Z,14.69
2023-03-22T09:13:52.660Z,14.65
2023-03-22T09:16:21.708Z,14.60
2023-03-22T09:18:50.649Z,14.54
2023-03-22T09:21:22.162Z,14.45
2023-03-22T09:23:57.945Z,14.41
2023-03-22T10:07:26.290Z,14.28
2023-03-22T10:10:18.269Z,14.35
2023-03-22T10:12:51.818Z,14.44
2023-03-22T10:15:33.616Z,14.53
2023-03-22T10:18:03.643Z,14.55
2023-03-22T10:20:35.075Z,14.57
2023-03-22T10:23:04.482Z,14.60
2023-03-22T10:25:37.974Z,14.63
2023-03-22T10:28:21.262Z,14.65
2023-03-22T10:30:54.975Z,14.68
2023-03-22T10:33:52.379Z,14.67
2023-03-22T10:36:22.496Z,14.57
2023-03-22T10:38:54.483Z,14.61
2023-03-22T10:41:25.691Z,14.55
2023-03-22T10:43:56.433Z,14.55
2023-03-22T10:46:26.520Z,14.56
2023-03-22T10:48:58.617Z,14.57
2023-03-22T10:51:31.404Z,14.57
2023-03-22T10:54:01.833Z,14.56
2023-03-22T10:56:30.504Z,14.53
2023-03-22T10:59:01.236Z,14.49
2023-03-22T11:01:32.439Z,14.44
2023-03-22T11:04:07.623Z,14.44
2023-03-22T11:06:41.634Z,14.44
2023-03-22T11:09:16.771Z,14.48
2023-03-22T11:11:53.467Z,14.62
2023-03-22T11:14:31.350Z,14.56
2023-03-22T11:17:00.464Z,14.60
2023-03-22T11:19:37.315Z,14.64
2023-03-22T11:22:16.136Z,14.62
2023-03-22T11:24:46.056Z,14.63
2023-03-22T11:27:20.880Z,14.65
2023-03-22T11:29:51.004Z,14.67
2023-03-22T11:32:35.680Z,14.72
2023-03-22T11:35:18.073Z,14.79
2023-03-22T11:37:51.001Z,14.83
2023-03-22T11:40:27.697Z,14.87
2023-03-22T11:43:17.417Z,14.92
2023-03-22T11:45:46.125Z,14.98
2023-03-22T11:48:16.922Z,15.02
2023-03-22T11:50:45.624Z,15.08
2023-03-22T11:53:16.972Z,15.10
2023-03-22T11:55:45.673Z,15.16
2023-03-22T11:58:44.535Z,15.22
2023-03-22T12:01:16.407Z,15.22
2023-03-22T12:03:45.405Z,15.22
2023-03-22T12:06:32.368Z,15.24
2023-03-22T12:09:19.517Z,15.12
2023-03-22T12:11:56.496Z,15.08
2023-03-22T12:14:29.296Z,15.19
2023-03-22T12:17:27.069Z,15.26
2023-03-22T12:20:24.816Z,15.31
2023-03-22T12:22:54.629Z,15.33
2023-03-22T12:25:32.337Z,15.34
2023-03-22T12:28:07.274Z,15.35
2023-03-22T12:30:47.596Z,15.35
2023-03-22T12:33:32.416Z,15.35
2023-03-22T12:36:02.913Z,15.29
2023-03-22T12:38:54.121Z,15.16
2023-03-22T12:41:35.220Z,15.13
2023-03-22T13:04:36.175Z,14.67
2023-03-22T13:07:13.888Z,14.63
2023-03-22T13:09:50.138Z,14.74
2023-03-22T13:12:24.854Z,14.78
2023-03-22T13:14:56.556Z,14.76
2023-03-22T13:17:25.328Z,14.76
2023-03-22T13:20:11.806Z,14.75
2023-03-22T13:22:43.453Z,14.70
2023-03-22T13:25:23.917Z,14.69
2023-03-22T13:28:12.774Z,14.66
2023-03-22T13:30:53.950Z,14.64
2023-03-22T13:33:26.430Z,14.61
2023-03-22T13:36:07.057Z,14.54
2023-03-22T13:38:46.324Z,14.40
2023-03-22T13:41:27.933Z,14.35
2023-03-22T13:44:00.184Z,14.37
2023-03-22T13:46:38.310Z,14.39
2023-03-22T13:49:20.820Z,14.27
2023-03-22T13:51:49.692Z,14.22
2023-03-22T13:54:21.542Z,14.19
2023-03-22T13:56:57.390Z,14.16
2023-03-22T13:59:27.590Z,14.14
2023-03-22T14:02:05.084Z,14.11
2023-03-22T14:04:56.429Z,14.08
2023-03-22T14:07:37.349Z,14.03
2023-03-22T14:10:42.205Z,14.00
2023-03-22T14:13:17.475Z,13.97
2023-03-22T14:15:56.146Z,13.94
2023-03-22T14:18:26.990Z,13.90
2023-03-22T14:21:00.021Z,13.87
